Time;durP1;ratioP1;P1;durP2;ratioP2;P2;SDS_P1;SDS_P2;PMS_P1;PMS_P2;Temp;Humidity;BMP_temperature;BMP_pressure;BME280_temperature;BME280_humidity;BME280_pressure;Samples;Min_cycle;Max_cycle;Signal;HPM_P1;HPM_P2
2022/10/29 00:00:24;;;;;;;41.60;23.27;;;;;;;;;;4917236;29;20044;-68
2022/10/29 00:02:51;;;;;;;55.13;28.02;;;;;;;;;;4917321;29;20043;-68
2022/10/29 00:05:19;;;;;;;49.00;25.60;;;;;;;;;;4917287;29;20107;-68
2022/10/29 00:07:46;;;;;;;51.83;28.38;;;;;;;;;;4916822;29;20044;-68
2022/10/29 00:10:14;;;;;;;67.05;32.33;;;;;;;;;;4916221;29;20113;-68
2022/10/29 00:12:41;;;;;;;62.95;31.20;;;;;;;;;;4917007;29;20063;-68
2022/10/29 00:15:09;;;;;;;65.85;32.58;;;;;;;;;;4916976;29;20458;-68
2022/10/29 00:17:36;;;;;;;59.50;30.27;;;;;;;;;;4916923;29;20422;-68
2022/10/29 00:20:04;;;;;;;59.75;30.42;;;;;;;;;;4917149;29;20431;-68
2022/10/29 00:22:31;;;;;;;60.10;29.13;;;;;;;;;;4917001;29;20044;-68
2022/10/29 00:24:59;;;;;;;57.97;29.58;;;;;;;;;;4916688;29;20047;-68
2022/10/29 00:27:27;;;;;;;57.95;29.13;;;;;;;;;;4916820;29;20044;-68
2022/10/29 00:29:54;;;;;;;53.10;28.42;;;;;;;;;;4915399;29;20130;-68
2022/10/29 00:32:22;;;;;;;53.45;28.63;;;;;;;;;;4916757;29;20096;-68
2022/10/29 00:34:49;;;;;;;52.22;27.40;;;;;;;;;;4916561;29;20048;-68
2022/10/29 00:37:16;;;;;;;58.60;27.92;;;;;;;;;;4915544;29;20072;-68
2022/10/29 00:39:44;;;;;;;55.40;27.88;;;;;;;;;;4916738;29;20052;-68
2022/10/29 00:42:13;;;;;;;53.20;28.58;;;;;;;;;;4916739;29;20075;-68
2022/10/29 00:44:41;;;;;;;55.05;27.95;;;;;;;;;;4916668;29;21054;-68
2022/10/29 00:47:24;;;;;;;57.13;28.45;;;;;;;;;;4916445;29;20517;-68
2022/10/29 00:50:11;;;;;;;52.90;28.13;;;;;;;;;;4916335;29;20102;-68
2022/10/29 00:52:40;;;;;;;57.78;28.23;;;;;;;;;;4916600;29;20036;-68
2022/10/29 00:55:09;;;;;;;56.88;27.95;;;;;;;;;;4915424;29;20381;-68
2022/10/29 00:57:39;;;;;;;50.92;27.35;;;;;;;;;;4916420;29;20044;-68
2022/10/29 01:00:07;;;;;;;57.42;29.40;;;;;;;;;;4916274;29;20048;-68
2022/10/29 01:02:35;;;;;;;61.42;29.63;;;;;;;;;;4916425;29;20127;-68
2022/10/29 01:05:04;;;;;;;80.82;39.95;;;;;;;;;;4916297;29;20051;-68
2022/10/29 01:07:31;;;;;;;64.50;34.22;;;;;;;;;;4915154;29;20135;-68
2022/10/29 01:09:59;;;;;;;50.55;28.40;;;;;;;;;;4916081;29;20052;-68
2022/10/29 01:12:45;;;;;;;55.92;29.45;;;;;;;;;;4916299;29;20129;-68
2022/10/29 01:15:17;;;;;;;54.00;27.35;;;;;;;;;;4916302;29;20451;-68
2022/10/29 01:17:45;;;;;;;51.35;28.35;;;;;;;;;;4916189;29;20048;-68
2022/10/29 01:20:24;;;;;;;50.40;27.45;;;;;;;;;;4917561;29;20044;-68
2022/10/29 01:22:55;;;;;;;54.95;27.92;;;;;;;;;;4920146;29;20055;-68
2022/10/29 01:25:41;;;;;;;54.50;26.92;;;;;;;;;;4919899;29;20107;-68
2022/10/29 01:28:24;;;;;;;54.13;26.60;;;;;;;;;;4919969;29;20068;-68
2022/10/29 01:31:01;;;;;;;50.67;27.73;;;;;;;;;;4903239;29;20566;-68
2022/10/29 01:33:35;;;;;;;48.13;27.10;;;;;;;;;;4918565;29;20078;-68
2022/10/29 01:36:11;;;;;;;53.50;27.88;;;;;;;;;;4919955;29;20044;-68
2022/10/29 01:38:48;;;;;;;56.33;27.40;;;;;;;;;;4919875;29;20044;-68
2022/10/29 01:41:33;;;;;;;61.58;27.90;;;;;;;;;;4920006;29;20048;-68
2022/10/29 01:44:13;;;;;;;85.75;35.92;;;;;;;;;;4919741;29;20537;-68
2022/10/29 01:46:44;;;;;;;86.38;40.88;;;;;;;;;;4919850;29;20044;-68
2022/10/29 01:49:15;;;;;;;79.97;39.17;;;;;;;;;;4919684;29;20068;-68
2022/10/29 01:51:42;;;;;;;77.05;36.83;;;;;;;;;;4919419;29;20040;-68
2022/10/29 01:54:11;;;;;;;78.80;34.75;;;;;;;;;;4919621;29;20080;-68
2022/10/29 01:56:38;;;;;;;54.20;31.05;;;;;;;;;;4919580;29;20036;-68
2022/10/29 01:59:07;;;;;;;57.30;29.85;;;;;;;;;;4919545;29;20453;-68
2022/10/29 02:01:52;;;;;;;50.33;27.67;;;;;;;;;;4919478;29;20044;-68
2022/10/29 02:04:38;;;;;;;53.60;27.98;;;;;;;;;;4919401;29;20048;-68
2022/10/29 02:07:11;;;;;;;58.03;29.90;;;;;;;;;;4919396;29;20040;-68
2022/10/29 02:09:53;;;;;;;59.67;28.23;;;;;;;;;;4919225;29;20048;-68
2022/10/29 02:12:20;;;;;;;50.17;27.20;;;;;;;;;;4919060;29;20036;-68
2022/10/29 02:14:53;;;;;;;47.17;25.42;;;;;;;;;;4919054;29;20127;-68
2022/10/29 02:17:20;;;;;;;43.92;25.05;;;;;;;;;;4919083;29;20475;-68
2022/10/29 02:19:48;;;;;;;47.03;25.92;;;;;;;;;;4919051;29;20474;-68
2022/10/29 02:22:15;;;;;;;44.10;24.45;;;;;;;;;;4919162;29;20127;-68
2022/10/29 02:24:43;;;;;;;44.00;25.05;;;;;;;;;;4919150;29;20127;-68
2022/10/29 02:27:10;;;;;;;46.85;24.15;;;;;;;;;;4918831;29;20127;-68
2022/10/29 02:29:38;;;;;;;44.85;24.45;;;;;;;;;;4918847;29;20487;-68
2022/10/29 02:32:05;;;;;;;47.13;25.55;;;;;;;;;;4918599;29;20047;-68
2022/10/29 02:34:33;;;;;;;41.35;23.08;;;;;;;;;;4918503;29;20094;-68
2022/10/29 02:37:00;;;;;;;43.45;24.58;;;;;;;;;;4918935;29;20084;-68
2022/10/29 02:39:29;;;;;;;41.58;23.40;;;;;;;;;;4918758;29;20044;-68
2022/10/29 02:41:56;;;;;;;44.40;24.38;;;;;;;;;;4918738;29;20115;-68
2022/10/29 02:44:24;;;;;;;40.40;22.67;;;;;;;;;;4918519;29;20086;-68
2022/10/29 02:46:51;;;;;;;40.83;24.15;;;;;;;;;;4917338;29;20091;-68
2022/10/29 02:49:19;;;;;;;40.20;23.98;;;;;;;;;;4918461;29;20044;-68
2022/10/29 02:51:46;;;;;;;46.00;23.88;;;;;;;;;;4918469;29;20040;-68
2022/10/29 02:54:14;;;;;;;44.17;23.05;;;;;;;;;;4918457;29;20055;-68
2022/10/29 02:56:41;;;;;;;46.08;24.75;;;;;;;;;;4918624;29;20071;-68
2022/10/29 02:59:09;;;;;;;48.50;25.50;;;;;;;;;;4917094;29;20059;-68
2022/10/29 03:01:38;;;;;;;52.65;28.52;;;;;;;;;;4918459;29;20048;-68
2022/10/29 03:04:06;;;;;;;43.70;24.42;;;;;;;;;;4918297;29;20071;-69
2022/10/29 03:06:33;;;;;;;45.05;25.77;;;;;;;;;;4918373;29;20511;-68
2022/10/29 03:09:00;;;;;;;45.78;23.63;;;;;;;;;;4918142;29;20052;-68
2022/10/29 03:11:28;;;;;;;49.08;24.73;;;;;;;;;;4917170;29;20075;-68
2022/10/29 03:13:55;;;;;;;50.05;25.10;;;;;;;;;;4917750;29;20047;-68
2022/10/29 03:16:23;;;;;;;47.92;25.48;;;;;;;;;;4918480;29;20064;-68
2022/10/29 03:18:50;;;;;;;48.22;23.88;;;;;;;;;;4918052;29;20052;-68
2022/10/29 03:21:17;;;;;;;47.50;24.33;;;;;;;;;;4916763;29;20051;-68
2022/10/29 03:23:45;;;;;;;47.05;24.63;;;;;;;;;;4918006;29;20127;-68
2022/10/29 03:26:12;;;;;;;44.60;25.17;;;;;;;;;;4917951;29;20040;-68
2022/10/29 03:28:40;;;;;;;50.50;24.67;;;;;;;;;;4917891;29;20135;-68
2022/10/29 03:31:07;;;;;;;47.97;24.42;;;;;;;;;;4917855;29;20052;-68
2022/10/29 03:33:35;;;;;;;45.10;23.40;;;;;;;;;;4917631;29;20190;-68
2022/10/29 03:36:07;;;;;;;42.80;22.98;;;;;;;;;;4917723;29;20103;-68
2022/10/29 03:38:34;;;;;;;44.55;22.25;;;;;;;;;;4917965;29;20410;-68
2022/10/29 03:41:07;;;;;;;48.97;22.92;;;;;;;;;;4917948;29;20554;-70
2022/10/29 03:43:35;;;;;;;45.03;22.88;;;;;;;;;;4916710;29;20058;-69
2022/10/29 03:46:03;;;;;;;41.45;21.95;;;;;;;;;;4917731;29;20044;-69
2022/10/29 03:48:30;;;;;;;51.83;24.13;;;;;;;;;;4917513;29;20075;-69
2022/10/29 03:51:00;;;;;;;41.85;22.52;;;;;;;;;;4917437;29;20051;-69
2022/10/29 03:53:28;;;;;;;49.55;22.83;;;;;;;;;;4917617;29;20072;-69
2022/10/29 03:55:56;;;;;;;43.75;22.98;;;;;;;;;;4917334;29;20117;-70
2022/10/29 03:58:24;;;;;;;39.47;21.25;;;;;;;;;;4917405;29;20122;-69
2022/10/29 04:00:58;;;;;;;41.75;21.23;;;;;;;;;;4917442;29;20502;-70
2022/10/29 04:03:26;;;;;;;37.03;21.23;;;;;;;;;;4917243;29;20048;-70
2022/10/29 04:05:54;;;;;;;43.00;22.08;;;;;;;;;;4917014;29;20438;-70
2022/10/29 04:08:21;;;;;;;39.83;21.15;;;;;;;;;;4917364;29;20048;-70
2022/10/29 04:10:50;;;;;;;45.13;21.40;;;;;;;;;;4917117;29;20127;-69
2022/10/29 04:13:17;;;;;;;38.33;20.48;;;;;;;;;;4917077;29;20048;-69
2022/10/29 04:15:45;;;;;;;45.58;21.63;;;;;;;;;;4917083;29;20062;-70
2022/10/29 04:18:13;;;;;;;43.30;22.65;;;;;;;;;;4916969;29;20044;-70
2022/10/29 04:20:40;;;;;;;40.75;21.92;;;;;;;;;;4916971;29;20076;-70
2022/10/29 04:23:28;;;;;;;40.92;22.10;;;;;;;;;;4916993;29;20055;-70
2022/10/29 04:26:16;;;;;;;42.05;21.00;;;;;;;;;;4916756;29;20395;-69
2022/10/29 04:29:03;;;;;;;39.15;20.48;;;;;;;;;;4916670;29;20052;-69
2022/10/29 04:31:30;;;;;;;38.60;20.52;;;;;;;;;;4916754;29;20040;-69
2022/10/29 04:33:58;;;;;;;39.33;20.35;;;;;;;;;;4915443;29;20082;-69
2022/10/29 04:36:25;;;;;;;36.60;20.42;;;;;;;;;;4916689;29;20040;-69
2022/10/29 04:38:53;;;;;;;37.03;20.40;;;;;;;;;;4916661;29;20044;-69
2022/10/29 04:41:20;;;;;;;44.42;21.88;;;;;;;;;;4916528;29;20040;-69
2022/10/29 04:43:48;;;;;;;44.00;20.33;;;;;;;;;;4916539;29;20063;-69
2022/10/29 04:46:15;;;;;;;38.22;19.63;;;;;;;;;;4916271;29;20123;-69
2022/10/29 04:48:42;;;;;;;37.10;20.75;;;;;;;;;;4916482;29;20051;-69
2022/10/29 04:51:20;;;;;;;38.70;20.73;;;;;;;;;;4916573;29;20095;-69
2022/10/29 04:53:47;;;;;;;43.92;19.83;;;;;;;;;;4916611;29;20095;-69
2022/10/29 04:56:15;;;;;;;38.25;19.70;;;;;;;;;;4916130;29;20526;-69
2022/10/29 04:58:42;;;;;;;50.78;21.77;;;;;;;;;;4916785;29;20055;-69
2022/10/29 05:01:10;;;;;;;43.80;21.88;;;;;;;;;;4916410;29;20083;-69
2022/10/29 05:03:37;;;;;;;41.22;21.27;;;;;;;;;;4916262;29;20091;-69
2022/10/29 05:06:05;;;;;;;42.30;21.55;;;;;;;;;;4916387;29;20482;-69
2022/10/29 05:08:33;;;;;;;42.22;21.08;;;;;;;;;;4916203;29;20116;-69
2022/10/29 05:11:04;;;;;;;44.53;21.40;;;;;;;;;;4916341;29;20048;-69
2022/10/29 05:13:32;;;;;;;41.05;20.73;;;;;;;;;;4916384;29;20064;-69
2022/10/29 05:15:59;;;;;;;45.63;21.67;;;;;;;;;;4916323;29;20078;-70
2022/10/29 05:18:27;;;;;;;43.50;20.77;;;;;;;;;;4916372;29;20035;-70
2022/10/29 05:20:55;;;;;;;37.13;20.60;;;;;;;;;;4916264;29;20123;-70
2022/10/29 05:23:22;;;;;;;40.63;20.75;;;;;;;;;;4916412;29;20059;-68
2022/10/29 05:25:50;;;;;;;41.40;19.90;;;;;;;;;;4915865;29;20495;-68
2022/10/29 05:28:20;;;;;;;39.10;18.70;;;;;;;;;;4916145;29;20116;-68
2022/10/29 05:30:48;;;;;;;36.88;16.80;;;;;;;;;;4946529;29;20075;-67
2022/10/29 05:33:17;;;;;;;37.50;18.13;;;;;;;;;;4916041;29;20435;-68
2022/10/29 05:35:45;;;;;;;43.08;18.40;;;;;;;;;;4916059;29;20558;-67
2022/10/29 05:38:13;;;;;;;33.00;18.67;;;;;;;;;;4916066;29;20088;-68
2022/10/29 05:40:43;;;;;;;35.83;18.73;;;;;;;;;;4916060;29;20079;-68
2022/10/29 05:43:12;;;;;;;31.90;17.40;;;;;;;;;;4916084;29;20480;-67
2022/10/29 05:45:39;;;;;;;28.08;16.38;;;;;;;;;;4916009;29;20056;-68
2022/10/29 05:48:07;;;;;;;25.67;15.13;;;;;;;;;;4916063;29;20048;-68
2022/10/29 05:50:35;;;;;;;33.83;15.88;;;;;;;;;;4944751;29;20562;-68
2022/10/29 05:53:03;;;;;;;27.65;15.30;;;;;;;;;;4914331;29;20035;-70
2022/10/29 05:55:31;;;;;;;35.22;16.60;;;;;;;;;;4915473;29;20044;-70
2022/10/29 05:58:00;;;;;;;45.58;22.15;;;;;;;;;;4912904;29;20032;-71
2022/10/29 06:00:28;;;;;;;81.95;36.88;;;;;;;;;;4915362;29;20040;-70
2022/10/29 06:02:55;;;;;;;44.95;22.67;;;;;;;;;;4915383;29;20542;-70
2022/10/29 06:05:24;;;;;;;77.60;32.45;;;;;;;;;;4915418;29;20128;-70
2022/10/29 06:07:55;;;;;;;55.70;27.13;;;;;;;;;;4916941;29;20103;-70
2022/10/29 06:10:24;;;;;;;86.55;38.60;;;;;;;;;;4916717;29;20040;-70
2022/10/29 06:12:51;;;;;;;176.35;74.38;;;;;;;;;;4918402;29;20559;-68
2022/10/29 06:15:19;;;;;;;96.30;44.55;;;;;;;;;;4912668;29;20043;-70
2022/10/29 06:17:46;;;;;;;67.20;28.10;;;;;;;;;;4938093;29;20431;-70
2022/10/29 06:20:15;;;;;;;46.33;24.77;;;;;;;;;;4938295;29;20052;-70
2022/10/29 06:22:43;;;;;;;56.70;26.33;;;;;;;;;;4936978;29;20043;-71
2022/10/29 06:25:10;;;;;;;47.28;24.25;;;;;;;;;;4938045;29;20103;-71
2022/10/29 06:27:37;;;;;;;70.25;38.42;;;;;;;;;;4938043;29;20078;-71
2022/10/29 06:30:05;;;;;;;49.65;28.88;;;;;;;;;;4937986;29;20047;-72
2022/10/29 06:32:33;;;;;;;39.63;22.63;;;;;;;;;;4937933;29;20107;-71
2022/10/29 06:35:00;;;;;;;41.55;23.20;;;;;;;;;;4937995;29;20059;-72
2022/10/29 06:37:32;;;;;;;49.63;23.25;;;;;;;;;;4937880;29;20086;-70
2022/10/29 06:39:59;;;;;;;44.28;22.70;;;;;;;;;;4937812;29;20126;-70
2022/10/29 06:42:26;;;;;;;48.08;23.77;;;;;;;;;;4937758;29;20078;-71
2022/10/29 06:44:54;;;;;;;38.45;21.77;;;;;;;;;;4936669;29;20087;-69
2022/10/29 06:47:21;;;;;;;34.40;19.17;;;;;;;;;;4937997;29;20044;-70
2022/10/29 06:49:49;;;;;;;27.58;14.48;;;;;;;;;;4922117;29;20049;-69
2022/10/29 06:52:16;;;;;;;25.35;15.07;;;;;;;;;;4917631;29;20048;-69
2022/10/29 06:54:44;;;;;;;29.63;14.32;;;;;;;;;;4916361;29;20056;-69
2022/10/29 06:57:11;;;;;;;25.50;15.13;;;;;;;;;;4918243;29;20051;-69
2022/10/29 06:59:38;;;;;;;26.27;13.65;;;;;;;;;;4918312;29;20096;-69
2022/10/29 07:02:06;;;;;;;26.30;14.60;;;;;;;;;;4918152;29;20114;-69
2022/10/29 07:04:34;;;;;;;21.88;13.52;;;;;;;;;;4918108;29;20041;-69
2022/10/29 07:07:01;;;;;;;27.65;14.00;;;;;;;;;;4918225;29;20040;-69
2022/10/29 07:09:28;;;;;;;26.25;12.70;;;;;;;;;;4917805;29;20052;-69
2022/10/29 07:11:56;;;;;;;16.35;10.55;;;;;;;;;;4918136;29;20103;-69
2022/10/29 07:14:23;;;;;;;18.90;9.43;;;;;;;;;;4918026;29;20083;-69
2022/10/29 07:16:51;;;;;;;15.65;9.60;;;;;;;;;;4917943;29;20044;-69
2022/10/29 07:19:19;;;;;;;16.10;9.38;;;;;;;;;;4917678;29;20048;-69
2022/10/29 07:21:46;;;;;;;14.85;9.02;;;;;;;;;;4917569;29;20495;-72
2022/10/29 07:24:16;;;;;;;63.55;13.27;;;;;;;;;;4917907;29;20495;-68
2022/10/29 07:26:43;;;;;;;17.30;9.13;;;;;;;;;;4917773;29;20055;-66
2022/10/29 07:29:11;;;;;;;13.63;8.20;;;;;;;;;;4917660;29;20495;-67
2022/10/29 07:31:38;;;;;;;14.65;8.82;;;;;;;;;;4917556;29;20036;-67
2022/10/29 07:34:06;;;;;;;20.25;8.32;;;;;;;;;;4917217;29;20076;-67
2022/10/29 07:36:33;;;;;;;17.50;8.55;;;;;;;;;;4917239;29;20135;-68
2022/10/29 07:39:02;;;;;;;13.73;8.40;;;;;;;;;;4916862;29;20428;-68
2022/10/29 07:41:31;;;;;;;16.10;9.00;;;;;;;;;;4916498;29;20096;-68
2022/10/29 07:43:58;;;;;;;16.70;8.63;;;;;;;;;;4916987;29;20052;-68
2022/10/29 07:46:25;;;;;;;14.88;8.20;;;;;;;;;;4900632;29;20094;-68
2022/10/29 07:48:53;;;;;;;12.05;7.38;;;;;;;;;;4917481;29;20444;-68
2022/10/29 07:51:20;;;;;;;12.13;7.40;;;;;;;;;;4917029;29;20052;-67
2022/10/29 07:53:48;;;;;;;11.63;7.22;;;;;;;;;;4917036;29;20040;-67
2022/10/29 07:56:15;;;;;;;15.00;7.60;;;;;;;;;;4917116;29;20127;-67
2022/10/29 07:58:43;;;;;;;12.18;7.30;;;;;;;;;;4917054;29;20048;-67
2022/10/29 08:01:10;;;;;;;14.73;7.80;;;;;;;;;;4917141;29;20048;-67
2022/10/29 08:03:37;;;;;;;11.48;7.55;;;;;;;;;;4915770;29;20096;-67
2022/10/29 08:06:05;;;;;;;10.40;7.50;;;;;;;;;;4917268;29;20099;-67
2022/10/29 08:08:33;;;;;;;16.23;7.30;;;;;;;;;;4917266;29;20071;-68
2022/10/29 08:11:01;;;;;;;11.30;7.35;;;;;;;;;;4916809;29;20131;-68
2022/10/29 08:13:29;;;;;;;10.35;6.80;;;;;;;;;;4916701;29;20139;-68
2022/10/29 08:15:56;;;;;;;12.73;7.05;;;;;;;;;;4917022;29;20071;-68
2022/10/29 08:18:24;;;;;;;12.10;6.82;;;;;;;;;;4916765;29;20418;-68
2022/10/29 08:20:51;;;;;;;12.32;6.50;;;;;;;;;;4916855;29;20048;-68
2022/10/29 08:23:19;;;;;;;12.90;6.75;;;;;;;;;;4915177;29;20123;-68
2022/10/29 08:25:46;;;;;;;8.77;6.15;;;;;;;;;;4916415;29;20040;-68
2022/10/29 08:28:14;;;;;;;9.80;6.30;;;;;;;;;;4916941;29;20100;-68
2022/10/29 08:30:42;;;;;;;12.18;6.38;;;;;;;;;;4915790;29;20060;-68
2022/10/29 08:33:10;;;;;;;10.50;5.70;;;;;;;;;;4916379;29;20063;-68
2022/10/29 08:35:37;;;;;;;9.55;6.07;;;;;;;;;;4916486;29;20048;-68
2022/10/29 08:38:05;;;;;;;10.75;5.85;;;;;;;;;;4915172;29;20040;-68
2022/10/29 08:40:46;;;;;;;9.02;5.70;;;;;;;;;;4913851;29;20107;-68
2022/10/29 08:43:25;;;;;;;8.05;5.78;;;;;;;;;;4915662;29;20040;-68
2022/10/29 08:45:53;;;;;;;8.48;5.40;;;;;;;;;;4915778;29;20052;-68
2022/10/29 08:48:24;;;;;;;10.77;6.05;;;;;;;;;;4915502;29;20064;-68
2022/10/29 08:51:12;;;;;;;14.05;6.80;;;;;;;;;;4910621;29;20045;-68
2022/10/29 08:53:45;;;;;;;7.90;5.75;;;;;;;;;;4915041;29;20493;-68
2022/10/29 08:56:36;;;;;;;10.80;5.47;;;;;;;;;;4916163;29;20040;-68
2022/10/29 08:59:20;;;;;;;10.23;6.03;;;;;;;;;;4916241;29;20126;-68
2022/10/29 09:01:48;;;;;;;10.00;6.25;;;;;;;;;;4916187;29;20380;-68
2022/10/29 09:04:24;;;;;;;11.07;6.22;;;;;;;;;;4916142;29;20047;-68
2022/10/29 09:06:57;;;;;;;14.93;6.63;;;;;;;;;;4915281;29;20522;-68
2022/10/29 09:09:28;;;;;;;13.32;6.47;;;;;;;;;;4916045;29;20055;-68
2022/10/29 09:12:05;;;;;;;12.77;7.80;;;;;;;;;;4915074;29;20502;-68
2022/10/29 09:14:37;;;;;;;11.48;6.30;;;;;;;;;;4916132;29;20128;-68
2022/10/29 09:17:08;;;;;;;13.20;5.88;;;;;;;;;;4916174;29;20131;-68
2022/10/29 09:19:47;;;;;;;9.13;6.20;;;;;;;;;;4914571;29;20063;-67
2022/10/29 09:22:14;;;;;;;13.25;6.75;;;;;;;;;;4915980;29;20048;-67
2022/10/29 09:24:50;;;;;;;13.02;5.55;;;;;;;;;;4915880;29;20127;-67
2022/10/29 09:27:23;;;;;;;15.68;5.85;;;;;;;;;;4913327;29;20395;-67
2022/10/29 09:29:56;;;;;;;10.50;5.85;;;;;;;;;;4914230;29;20040;-70
2022/10/29 09:32:33;;;;;;;10.00;5.68;;;;;;;;;;4915602;29;20119;-70
2022/10/29 09:35:14;;;;;;;16.33;6.35;;;;;;;;;;4915510;29;20119;-71
2022/10/29 09:37:56;;;;;;;15.63;6.20;;;;;;;;;;4916003;29;20462;-70
2022/10/29 09:40:32;;;;;;;10.10;5.82;;;;;;;;;;4915057;29;20059;-70
2022/10/29 09:43:01;;;;;;;12.98;6.50;;;;;;;;;;4918132;29;20080;-71
2022/10/29 09:45:39;;;;;;;11.90;6.30;;;;;;;;;;4919504;29;20176;-70
2022/10/29 09:48:13;;;;;;;9.73;5.78;;;;;;;;;;4906010;29;20044;-71
2022/10/29 09:50:47;;;;;;;9.55;5.63;;;;;;;;;;4919390;29;20515;-71
2022/10/29 09:53:14;;;;;;;12.50;6.10;;;;;;;;;;4916684;29;20040;-71
2022/10/29 09:55:43;;;;;;;11.27;6.68;;;;;;;;;;4919356;29;20051;-71
2022/10/29 09:58:18;;;;;;;11.43;5.72;;;;;;;;;;4919273;29;20460;-70
2022/10/29 10:00:45;;;;;;;11.63;6.38;;;;;;;;;;4919296;29;20055;-70
2022/10/29 10:03:19;;;;;;;12.07;6.65;;;;;;;;;;4919114;29;20119;-70
2022/10/29 10:06:00;;;;;;;11.18;6.03;;;;;;;;;;4918624;29;20047;-70
2022/10/29 10:08:28;;;;;;;7.40;5.32;;;;;;;;;;4919109;29;20491;-70
2022/10/29 10:10:57;;;;;;;12.52;6.38;;;;;;;;;;4918778;29;20582;-70
2022/10/29 10:13:26;;;;;;;9.43;5.72;;;;;;;;;;4919295;29;20111;-70
2022/10/29 10:15:55;;;;;;;11.23;5.93;;;;;;;;;;4918734;29;20054;-70
2022/10/29 10:18:42;;;;;;;10.32;5.95;;;;;;;;;;4918845;29;20119;-71
2022/10/29 10:21:11;;;;;;;12.13;7.43;;;;;;;;;;4919056;29;20498;-70
2022/10/29 10:23:52;;;;;;;13.25;8.25;;;;;;;;;;4917884;29;20416;-70
2022/10/29 10:26:28;;;;;;;11.27;5.70;;;;;;;;;;4918770;29;20044;-70
2022/10/29 10:29:15;;;;;;;19.60;8.55;;;;;;;;;;4918656;29;20115;-70
2022/10/29 10:31:43;;;;;;;12.20;5.78;;;;;;;;;;4918703;29;20080;-70
2022/10/29 10:34:15;;;;;;;10.68;4.80;;;;;;;;;;4918557;29;20470;-70
2022/10/29 10:36:48;;;;;;;7.60;4.40;;;;;;;;;;4918682;29;20123;-70
2022/10/29 10:39:22;;;;;;;24.25;10.90;;;;;;;;;;4933264;29;20040;-70
2022/10/29 10:41:50;;;;;;;7.35;4.97;;;;;;;;;;4918765;29;20131;-70
2022/10/29 10:44:18;;;;;;;9.70;4.50;;;;;;;;;;4918389;29;20068;-70
2022/10/29 10:46:46;;;;;;;9.00;5.00;;;;;;;;;;4918722;29;20443;-71
2022/10/29 10:49:15;;;;;;;10.27;4.40;;;;;;;;;;4918634;29;20046;-70
2022/10/29 10:51:48;;;;;;;8.65;4.65;;;;;;;;;;4918114;29;20056;-70
2022/10/29 10:54:42;;;;;;;8.20;3.80;;;;;;;;;;4918101;29;20055;-70
2022/10/29 10:57:12;;;;;;;7.63;4.05;;;;;;;;;;4900030;29;20059;-71
2022/10/29 10:59:43;;;;;;;6.28;3.95;;;;;;;;;;4917066;29;20055;-71
2022/10/29 11:02:23;;;;;;;5.78;3.90;;;;;;;;;;4916545;29;20063;-71
2022/10/29 11:05:02;;;;;;;8.55;3.95;;;;;;;;;;4916989;29;20036;-71
2022/10/29 11:07:36;;;;;;;7.35;3.65;;;;;;;;;;4916969;29;20072;-71
2022/10/29 11:10:05;;;;;;;9.85;4.72;;;;;;;;;;4916475;29;20123;-70
2022/10/29 11:12:36;;;;;;;6.85;3.97;;;;;;;;;;4916359;29;20487;-70
2022/10/29 11:15:06;;;;;;;13.90;6.35;;;;;;;;;;4916516;29;20051;-71
2022/10/29 11:17:49;;;;;;;17.23;4.22;;;;;;;;;;4913728;29;20051;-71
2022/10/29 11:20:26;;;;;;;6.78;3.60;;;;;;;;;;4914139;29;20040;-71
2022/10/29 11:23:12;;;;;;;55.20;34.38;;;;;;;;;;4916557;29;20511;-71
2022/10/29 11:25:42;;;;;;;6.35;4.38;;;;;;;;;;4917503;29;20080;-71
2022/10/29 11:28:19;;;;;;;18.33;10.88;;;;;;;;;;4916567;29;20059;-71
2022/10/29 11:30:54;;;;;;;16.25;10.43;;;;;;;;;;4917355;29;20082;-71
2022/10/29 11:33:36;;;;;;;8.15;3.70;;;;;;;;;;4917608;29;20053;-71
2022/10/29 11:36:18;;;;;;;5.35;3.85;;;;;;;;;;4917387;29;20052;-71
2022/10/29 11:38:49;;;;;;;9.23;5.63;;;;;;;;;;4917678;29;20040;-71
2022/10/29 11:41:39;;;;;;;10.98;5.03;;;;;;;;;;4917376;29;20052;-71
2022/10/29 11:44:11;;;;;;;7.38;3.63;;;;;;;;;;4911260;29;20084;-71
2022/10/29 11:46:50;;;;;;;6.68;3.90;;;;;;;;;;4915573;29;20509;-71
2022/10/29 11:49:17;;;;;;;5.22;3.45;;;;;;;;;;4916612;29;20353;-71
2022/10/29 11:51:57;;;;;;;10.45;4.65;;;;;;;;;;4916944;29;20087;-71
2022/10/29 11:54:43;;;;;;;48.95;33.58;;;;;;;;;;4917004;29;20514;-71
2022/10/29 11:57:15;;;;;;;25.08;17.27;;;;;;;;;;4916826;29;20068;-71
2022/10/29 12:00:01;;;;;;;16.40;10.00;;;;;;;;;;4916384;29;20510;-71
2022/10/29 12:02:44;;;;;;;11.07;6.63;;;;;;;;;;4907767;29;20495;-71
2022/10/29 12:05:23;;;;;;;12.52;7.10;;;;;;;;;;4916205;29;20406;-71
2022/10/29 12:07:54;;;;;;;8.07;4.75;;;;;;;;;;4908521;29;20052;-71
2022/10/29 12:10:40;;;;;;;8.50;4.32;;;;;;;;;;4916294;29;20035;-71
2022/10/29 12:13:23;;;;;;;9.40;3.75;;;;;;;;;;4916722;29;20521;-71
2022/10/29 12:16:02;;;;;;;23.80;4.93;;;;;;;;;;4906001;29;20506;-70
2022/10/29 12:18:44;;;;;;;8.15;3.45;;;;;;;;;;4915059;29;20487;-71
2022/10/29 12:21:18;;;;;;;6.57;3.72;;;;;;;;;;4916558;29;20066;-71
2022/10/29 12:23:51;;;;;;;13.63;5.60;;;;;;;;;;4915682;29;20056;-70
2022/10/29 12:26:31;;;;;;;7.22;4.45;;;;;;;;;;4915635;29;20123;-71
2022/10/29 12:29:18;;;;;;;15.63;7.70;;;;;;;;;;4915601;29;20059;-70
2022/10/29 12:31:49;;;;;;;9.43;5.75;;;;;;;;;;4916272;29;20076;-70
2022/10/29 12:34:19;;;;;;;8.85;5.20;;;;;;;;;;4915066;29;20100;-71
2022/10/29 12:36:53;;;;;;;9.20;4.63;;;;;;;;;;4916609;29;20486;-71
2022/10/29 12:39:32;;;;;;;9.07;3.80;;;;;;;;;;4916417;29;20046;-71
2022/10/29 12:42:02;;;;;;;9.55;3.90;;;;;;;;;;4916538;29;20115;-71
2022/10/29 12:44:50;;;;;;;8.15;4.50;;;;;;;;;;4916320;29;20050;-71
2022/10/29 12:47:24;;;;;;;10.57;5.05;;;;;;;;;;4916227;29;20087;-70
2022/10/29 12:50:02;;;;;;;6.10;3.72;;;;;;;;;;4916272;29;20047;-70
2022/10/29 12:52:29;;;;;;;5.95;3.50;;;;;;;;;;4916322;29;20380;-70
2022/10/29 12:54:59;;;;;;;7.45;4.07;;;;;;;;;;4914975;29;20127;-70
2022/10/29 12:57:34;;;;;;;7.63;3.75;;;;;;;;;;4915687;29;20040;-70
2022/10/29 13:00:27;;;;;;;7.35;5.00;;;;;;;;;;4915100;29;20559;-70
2022/10/29 13:02:55;;;;;;;12.73;8.43;;;;;;;;;;4913953;29;20516;-70
2022/10/29 13:05:26;;;;;;;12.45;7.18;;;;;;;;;;4914232;29;20047;-69
2022/10/29 13:07:57;;;;;;;7.97;4.53;;;;;;;;;;4915055;29;20086;-70
2022/10/29 13:10:27;;;;;;;6.50;4.28;;;;;;;;;;4915741;29;20044;-74
2022/10/29 13:12:54;;;;;;;6.00;4.03;;;;;;;;;;4915749;29;20043;-69
2022/10/29 13:15:23;;;;;;;6.65;4.07;;;;;;;;;;4915646;29;20040;-69
2022/10/29 13:17:52;;;;;;;8.07;4.22;;;;;;;;;;4919875;29;20080;-69
2022/10/29 13:20:24;;;;;;;5.15;3.47;;;;;;;;;;4919536;29;20065;-69
2022/10/29 13:22:58;;;;;;;7.47;3.90;;;;;;;;;;4919837;29;20080;-69
2022/10/29 13:25:39;;;;;;;8.18;4.38;;;;;;;;;;4919629;29;20060;-71
2022/10/29 13:28:26;;;;;;;11.27;4.53;;;;;;;;;;4919695;29;20040;-70
2022/10/29 13:31:03;;;;;;;11.50;4.30;;;;;;;;;;4912006;29;20050;-70
2022/10/29 13:33:31;;;;;;;12.20;4.57;;;;;;;;;;4919259;29;20052;-70
2022/10/29 13:35:58;;;;;;;11.38;5.65;;;;;;;;;;4919663;29;20091;-70
2022/10/29 13:38:41;;;;;;;11.00;4.10;;;;;;;;;;4919521;29;20040;-70
2022/10/29 13:41:38;;;;;;;7.22;4.38;;;;;;;;;;4919226;29;20096;-70
2022/10/29 13:44:11;;;;;;;6.97;3.95;;;;;;;;;;4919291;29;20076;-71
2022/10/29 13:46:45;;;;;;;8.20;3.97;;;;;;;;;;4919198;29;20394;-70
2022/10/29 13:49:18;;;;;;;6.78;4.63;;;;;;;;;;4918923;29;20040;-70
2022/10/29 13:51:58;;;;;;;9.25;4.80;;;;;;;;;;4933636;29;20514;-70
2022/10/29 13:54:37;;;;;;;12.18;4.22;;;;;;;;;;4919001;29;20040;-71
2022/10/29 13:57:14;;;;;;;8.25;4.18;;;;;;;;;;4917928;29;20064;-70
2022/10/29 13:59:42;;;;;;;7.43;4.93;;;;;;;;;;4918071;29;20092;-71
2022/10/29 14:02:23;;;;;;;12.13;4.60;;;;;;;;;;4918926;29;20048;-71
2022/10/29 14:04:54;;;;;;;7.43;4.70;;;;;;;;;;4918764;29;20040;-71
2022/10/29 14:07:24;;;;;;;8.00;4.50;;;;;;;;;;4918461;29;20482;-70
2022/10/29 14:09:54;;;;;;;9.13;5.00;;;;;;;;;;4917011;29;20483;-72
2022/10/29 14:12:24;;;;;;;7.50;4.57;;;;;;;;;;4917836;29;21005;-71
2022/10/29 14:15:01;;;;;;;9.60;4.60;;;;;;;;;;4918858;29;20412;-72
2022/10/29 14:17:29;;;;;;;11.75;4.88;;;;;;;;;;4919967;29;20050;-72
2022/10/29 14:19:56;;;;;;;14.85;5.40;;;;;;;;;;4916833;29;20115;-72
2022/10/29 14:22:37;;;;;;;9.30;5.40;;;;;;;;;;4918493;29;20382;-71
2022/10/29 14:25:25;;;;;;;10.85;5.22;;;;;;;;;;4918674;29;20067;-71
2022/10/29 14:28:12;;;;;;;12.57;5.53;;;;;;;;;;4907753;29;20064;-70
2022/10/29 14:30:39;;;;;;;15.70;5.97;;;;;;;;;;4917807;29;20047;-72
2022/10/29 14:33:23;;;;;;;10.30;5.55;;;;;;;;;;4917528;29;20048;-71
2022/10/29 14:35:51;;;;;;;14.10;6.47;;;;;;;;;;4918301;29;20036;-71
2022/10/29 14:38:20;;;;;;;10.65;6.13;;;;;;;;;;4917069;29;20079;-71
2022/10/29 14:40:48;;;;;;;19.35;6.10;;;;;;;;;;4916103;29;20036;-71
2022/10/29 14:43:20;;;;;;;20.25;7.47;;;;;;;;;;4916849;29;20529;-72
2022/10/29 14:45:47;;;;;;;14.38;6.15;;;;;;;;;;4917912;29;20459;-72
2022/10/29 14:48:17;;;;;;;10.00;5.82;;;;;;;;;;4916797;29;20050;-72
2022/10/29 14:50:46;;;;;;;15.35;6.70;;;;;;;;;;4917851;29;20095;-72